createdAt,value
2022-10-31T00:01:24.149Z,27.23
2022-10-31T00:03:51.303Z,33.30
2022-10-31T00:06:21.247Z,30.92
2022-10-31T00:09:03.154Z,26.63
2022-10-31T00:11:31.148Z,28.25
2022-10-31T00:14:00.151Z,28.88
2022-10-31T00:16:28.639Z,27.58
2022-10-31T00:18:58.993Z,31.52
2022-10-31T00:21:26.666Z,27.60
2022-10-31T00:23:54.206Z,22.35
2022-10-31T00:26:21.353Z,27.88
2022-10-31T00:28:49.573Z,28.10
2022-10-31T00:31:16.930Z,27.70
2022-10-31T00:33:45.241Z,26.83
2022-10-31T00:36:15.365Z,28.67
2022-10-31T00:38:43.332Z,32.60
2022-10-31T00:41:11.525Z,28.98
2022-10-31T00:46:10.241Z,24.73
2022-10-31T00:48:37.524Z,25.88
2022-10-31T00:51:04.639Z,26.23
2022-10-31T00:53:31.884Z,29.50
2022-10-31T00:56:00.475Z,25.33
2022-10-31T00:58:28.116Z,26.10
2022-10-31T01:00:56.281Z,29.95
2022-10-31T01:03:29.664Z,25.90
2022-10-31T01:06:07.671Z,30.67
2022-10-31T01:08:36.616Z,36.35
2022-10-31T01:11:09.016Z,28.80
2022-10-31T01:13:36.722Z,29.13
2022-10-31T01:16:06.074Z,33.60
2022-10-31T01:18:34.412Z,27.65
2022-10-31T01:21:04.909Z,33.90
2022-10-31T01:23:32.959Z,28.80
2022-10-31T01:26:18.722Z,29.05
2022-10-31T01:28:54.646Z,28.52
2022-10-31T01:31:24.283Z,31.65
2022-10-31T01:33:51.568Z,28.33
2022-10-31T01:36:23.709Z,31.33
2022-10-31T01:38:56.406Z,32.42
2022-10-31T01:41:30.614Z,26.95
2022-10-31T01:44:03.697Z,31.33
2022-10-31T01:46:44.307Z,32.47
2022-10-31T01:49:18.070Z,29.67
2022-10-31T01:51:55.767Z,31.75
2022-10-31T01:54:26.430Z,37.30
2022-10-31T01:56:57.253Z,34.30
2022-10-31T01:59:28.677Z,34.05
2022-10-31T02:01:55.883Z,31.10
2022-10-31T02:04:26.120Z,34.80
2022-10-31T02:07:02.041Z,33.03
2022-10-31T02:09:32.220Z,34.17
2022-10-31T02:12:00.561Z,34.45
2022-10-31T02:14:31.622Z,35.63
2022-10-31T02:16:59.086Z,35.38
2022-10-31T02:19:41.954Z,32.35
2022-10-31T02:22:42.793Z,31.30
2022-10-31T02:25:54.659Z,34.17
2022-10-31T02:28:35.991Z,31.13
2022-10-31T02:31:22.059Z,34.20
2022-10-31T02:34:01.739Z,31.38
2022-10-31T02:36:31.548Z,28.80
2022-10-31T02:39:23.485Z,28.90
2022-10-31T02:42:05.193Z,34.78
2022-10-31T02:44:45.770Z,39.95
2022-10-31T02:47:29.183Z,36.75
2022-10-31T02:50:07.741Z,38.47
2022-10-31T02:52:36.538Z,43.75
2022-10-31T02:55:33.896Z,42.42
2022-10-31T02:58:08.309Z,40.03
2022-10-31T03:00:51.262Z,40.03
2022-10-31T03:03:47.121Z,40.50
2022-10-31T03:06:30.357Z,39.60
2022-10-31T03:09:20.362Z,41.50
2022-10-31T03:11:58.923Z,42.42
2022-10-31T03:14:40.491Z,39.42
2022-10-31T03:17:13.919Z,39.75
2022-10-31T03:19:45.030Z,35.85
2022-10-31T03:22:30.803Z,40.40
2022-10-31T03:25:02.575Z,38.67
2022-10-31T03:27:34.652Z,35.58
2022-10-31T03:30:08.781Z,40.75
2022-10-31T03:32:55.724Z,34.25
2022-10-31T03:35:25.718Z,43.22
2022-10-31T03:37:55.167Z,38.38
2022-10-31T03:40:27.108Z,37.80
2022-10-31T03:43:02.294Z,42.33
2022-10-31T03:45:31.793Z,40.30
2022-10-31T03:48:02.380Z,41.55
2022-10-31T03:50:39.936Z,40.42
2022-10-31T03:53:20.512Z,39.95
2022-10-31T03:55:57.043Z,45.35
2022-10-31T03:58:29.771Z,40.22
2022-10-31T04:00:59.853Z,43.22
2022-10-31T04:03:31.167Z,44.50
2022-10-31T04:06:07.360Z,43.53
2022-10-31T04:08:41.599Z,43.30
2022-10-31T04:11:12.770Z,47.10
2022-10-31T04:13:45.388Z,40.10
2022-10-31T04:16:17.632Z,38.53
2022-10-31T04:18:45.288Z,45.22
2022-10-31T04:21:12.529Z,39.13
2022-10-31T04:23:39.666Z,35.33
2022-10-31T04:26:17.189Z,41.67
2022-10-31T04:28:44.766Z,45.20
2022-10-31T04:31:14.170Z,38.15
2022-10-31T04:33:43.093Z,41.00
2022-10-31T04:36:10.532Z,43.85
2022-10-31T04:38:38.215Z,42.20
2022-10-31T04:41:14.268Z,41.53
2022-10-31T04:43:58.617Z,42.00
2022-10-31T04:46:27.813Z,39.53
2022-10-31T04:48:56.620Z,38.38
2022-10-31T04:51:24.943Z,44.47
2022-10-31T04:53:52.464Z,41.70
2022-10-31T04:56:28.610Z,38.88
2022-10-31T04:59:01.056Z,39.83
2022-10-31T05:01:34.035Z,41.85
2022-10-31T05:04:01.895Z,37.75
2022-10-31T05:06:29.828Z,42.88
2022-10-31T05:08:57.936Z,39.63
2022-10-31T05:11:25.276Z,36.88
2022-10-31T05:13:53.944Z,35.85
2022-10-31T05:16:46.784Z,39.28
2022-10-31T05:19:45.695Z,45.08
2022-10-31T05:22:46.686Z,41.83
2022-10-31T05:25:14.181Z,34.83
2022-10-31T05:27:43.111Z,36.70
2022-10-31T05:30:12.671Z,40.25
2022-10-31T05:32:44.324Z,38.72
2022-10-31T05:35:32.904Z,36.53
2022-10-31T05:38:28.312Z,39.70
2022-10-31T05:41:01.004Z,42.50
2022-10-31T05:43:30.236Z,39.90
2022-10-31T05:45:58.041Z,41.63
2022-10-31T05:48:44.036Z,45.80
2022-10-31T05:51:29.336Z,36.53
2022-10-31T05:53:57.004Z,37.17
2022-10-31T05:56:25.186Z,37.00
2022-10-31T05:58:52.325Z,39.17
2022-10-31T06:01:19.270Z,36.63
2022-10-31T06:03:46.983Z,37.65
2022-10-31T06:06:16.458Z,42.65
2022-10-31T06:08:43.546Z,39.88
2022-10-31T06:11:20.333Z,39.40
2022-10-31T06:14:10.597Z,40.95
2022-10-31T06:16:49.843Z,38.35
2022-10-31T06:19:35.629Z,40.92
2022-10-31T06:22:02.976Z,45.25
2022-10-31T06:24:30.589Z,40.25
2022-10-31T06:27:07.684Z,46.83
2022-10-31T06:29:34.759Z,42.58
2022-10-31T06:32:06.897Z,47.60
2022-10-31T06:34:40.241Z,50.30
2022-10-31T06:37:09.415Z,51.92
2022-10-31T06:39:38.230Z,59.40
2022-10-31T06:42:06.148Z,57.63
2022-10-31T06:44:34.082Z,61.80
2022-10-31T06:47:23.766Z,52.28
2022-10-31T06:50:07.401Z,59.78
2022-10-31T06:52:35.341Z,44.15
2022-10-31T06:55:03.586Z,46.75
2022-10-31T06:57:31.476Z,43.30
2022-10-31T06:59:58.918Z,43.15
2022-10-31T07:02:36.417Z,40.63
2022-10-31T07:05:05.711Z,44.95
2022-10-31T07:07:33.691Z,42.17
2022-10-31T07:10:01.501Z,39.40
2022-10-31T07:12:54.637Z,45.25
2022-10-31T07:15:22.203Z,41.55
2022-10-31T07:17:49.324Z,39.35
2022-10-31T07:20:16.761Z,39.00
2022-10-31T07:22:46.805Z,33.50
2022-10-31T07:25:16.989Z,39.22
2022-10-31T07:28:22.498Z,39.53
2022-10-31T07:30:53.989Z,40.35
2022-10-31T07:33:22.172Z,40.03
2022-10-31T07:36:08.076Z,37.05
2022-10-31T07:38:34.983Z,41.60
2022-10-31T07:41:05.135Z,51.03
2022-10-31T07:43:37.988Z,42.75
2022-10-31T07:46:16.805Z,50.28
2022-10-31T07:49:07.875Z,45.25
2022-10-31T07:51:53.713Z,40.58
2022-10-31T07:54:40.742Z,46.63
2022-10-31T07:57:10.251Z,45.40
2022-10-31T07:59:38.709Z,41.20
2022-10-31T08:02:09.361Z,37.03
2022-10-31T08:04:49.040Z,44.47
2022-10-31T08:07:38.324Z,40.13
2022-10-31T08:10:08.051Z,48.60
2022-10-31T08:12:36.066Z,45.63
2022-10-31T08:15:07.534Z,44.33
2022-10-31T08:17:39.408Z,45.40
2022-10-31T08:20:08.319Z,43.83
2022-10-31T08:22:43.889Z,48.80
2022-10-31T08:25:11.544Z,40.17
2022-10-31T08:27:40.499Z,48.15
2022-10-31T08:30:13.407Z,42.67
2022-10-31T08:32:48.172Z,46.00
2022-10-31T08:35:34.520Z,41.33
2022-10-31T08:38:34.322Z,41.42
2022-10-31T08:41:04.037Z,40.83
2022-10-31T08:43:31.134Z,41.00
2022-10-31T08:45:58.104Z,41.10
2022-10-31T08:48:30.336Z,40.25
2022-10-31T08:50:59.271Z,43.70
2022-10-31T08:53:27.475Z,35.45
2022-10-31T08:56:11.335Z,37.58
2022-10-31T08:58:40.331Z,34.22
2022-10-31T09:01:09.559Z,36.33
2022-10-31T09:03:36.735Z,38.28
2022-10-31T09:06:04.315Z,38.80
2022-10-31T09:08:32.471Z,37.90
2022-10-31T09:11:01.656Z,37.85
2022-10-31T09:13:47.209Z,31.67
2022-10-31T09:16:43.580Z,34.83
2022-10-31T09:19:17.591Z,30.98
2022-10-31T09:21:46.824Z,35.42
2022-10-31T09:24:13.931Z,33.03
2022-10-31T09:26:42.570Z,36.17
2022-10-31T09:29:27.966Z,33.80
2022-10-31T09:31:58.943Z,32.33
2022-10-31T09:37:08.954Z,31.25
2022-10-31T09:39:36.265Z,33.83
2022-10-31T09:42:35.041Z,29.88
2022-10-31T09:45:23.696Z,29.55
2022-10-31T09:48:05.788Z,31.70
2022-10-31T09:51:05.739Z,37.42
2022-10-31T09:53:58.937Z,37.35
2022-10-31T09:56:28.615Z,37.22
2022-10-31T09:59:01.740Z,36.47
2022-10-31T10:01:40.873Z,38.97
2022-10-31T10:04:27.387Z,44.58
2022-10-31T10:07:23.310Z,45.50
2022-10-31T10:10:51.668Z,44.72
2022-10-31T10:13:47.433Z,39.80
2022-10-31T10:16:26.888Z,42.60
2022-10-31T10:19:03.087Z,41.20
2022-10-31T10:21:57.877Z,37.97
2022-10-31T10:24:58.290Z,38.63
2022-10-31T10:27:35.864Z,39.22
2022-10-31T10:30:16.158Z,33.83
2022-10-31T10:32:51.085Z,35.25
2022-10-31T10:35:32.056Z,31.90
2022-10-31T10:38:12.994Z,31.10
2022-10-31T10:40:41.236Z,32.80
2022-10-31T10:43:36.332Z,37.78
2022-10-31T10:46:32.730Z,28.95
2022-10-31T10:49:19.298Z,29.58
2022-10-31T10:55:26.197Z,26.10
2022-10-31T10:58:03.700Z,26.60
2022-10-31T11:00:33.572Z,26.63
2022-10-31T11:03:01.307Z,30.00
2022-10-31T11:05:43.391Z,27.73
2022-10-31T11:08:10.526Z,24.58
2022-10-31T11:10:38.016Z,25.33
2022-10-31T11:13:10.841Z,28.42
2022-10-31T11:15:50.607Z,25.67
2022-10-31T11:21:00.896Z,25.08
2022-10-31T11:23:29.741Z,25.77
2022-10-31T11:26:21.069Z,26.60
2022-10-31T11:28:59.652Z,24.58
2022-10-31T11:31:28.248Z,24.80
2022-10-31T11:34:04.456Z,24.90
2022-10-31T11:36:36.419Z,25.52
2022-10-31T11:39:06.626Z,26.08
2022-10-31T11:41:43.593Z,27.63
2022-10-31T11:44:30.077Z,30.60
2022-10-31T11:47:01.037Z,29.30
2022-10-31T11:49:46.512Z,27.20
2022-10-31T11:52:21.171Z,24.77
2022-10-31T11:54:50.789Z,26.10
2022-10-31T11:57:29.750Z,28.40
2022-10-31T11:59:59.576Z,25.55
2022-10-31T12:02:27.830Z,30.15
2022-10-31T12:05:33.909Z,28.60
2022-10-31T12:08:04.371Z,28.85
2022-10-31T12:10:43.348Z,28.13
2022-10-31T12:13:19.809Z,29.15
2022-10-31T12:15:55.164Z,28.88
2022-10-31T12:18:58.956Z,28.48
2022-10-31T12:21:26.514Z,29.02
2022-10-31T12:24:17.504Z,30.48
2022-10-31T12:27:26.929Z,29.75
2022-10-31T12:29:56.796Z,27.23
2022-10-31T12:32:33.406Z,29.60
2022-10-31T12:35:37.790Z,26.63
2022-10-31T12:38:16.916Z,29.55
2022-10-31T12:40:49.228Z,34.47
2022-10-31T12:43:38.483Z,31.27
2022-10-31T12:46:15.038Z,34.35
2022-10-31T12:48:48.038Z,32.75
2022-10-31T12:51:34.757Z,35.50
2022-10-31T12:54:04.822Z,34.03
2022-10-31T12:56:51.811Z,38.88
2022-10-31T12:59:25.149Z,34.67
2022-10-31T13:02:00.772Z,33.15
2022-10-31T13:04:45.226Z,38.65
2022-10-31T13:07:34.232Z,36.15
2022-10-31T13:10:18.735Z,33.15
2022-10-31T13:12:49.156Z,38.40
2022-10-31T13:15:22.689Z,35.08
2022-10-31T13:17:57.562Z,33.90
2022-10-31T13:20:31.670Z,35.22
2022-10-31T13:23:50.425Z,41.30
2022-10-31T13:26:44.791Z,37.38
2022-10-31T13:29:14.751Z,39.70
2022-10-31T13:31:43.221Z,38.50
2022-10-31T13:34:32.774Z,41.08
2022-10-31T13:37:27.438Z,40.15
2022-10-31T13:40:27.924Z,39.90
2022-10-31T13:43:16.841Z,39.22
2022-10-31T13:45:55.363Z,36.33
2022-10-31T13:48:28.517Z,42.22
2022-10-31T13:51:03.367Z,39.95
2022-10-31T13:53:56.559Z,45.17
2022-10-31T13:56:32.980Z,39.50
2022-10-31T13:59:20.559Z,45.70
2022-10-31T14:01:52.707Z,37.45
2022-10-31T14:04:25.577Z,40.20
2022-10-31T14:07:12.005Z,38.22
2022-10-31T14:09:55.673Z,40.30
2022-10-31T14:12:30.654Z,42.28
2022-10-31T14:15:06.716Z,43.25
2022-10-31T14:17:53.733Z,43.17
2022-10-31T14:20:40.789Z,45.70
2022-10-31T14:23:29.358Z,43.80
2022-10-31T14:26:18.109Z,51.75
2022-10-31T14:28:46.509Z,45.75
2022-10-31T14:31:33.704Z,45.38
2022-10-31T14:34:03.231Z,47.40
2022-10-31T14:36:57.538Z,45.22
2022-10-31T14:39:41.315Z,42.63
2022-10-31T14:42:36.023Z,42.53
2022-10-31T14:45:18.213Z,42.35
2022-10-31T14:48:08.075Z,42.15
2022-10-31T14:50:41.516Z,46.33
2022-10-31T14:53:15.537Z,53.83
2022-10-31T14:55:49.561Z,43.40
2022-10-31T14:58:22.617Z,50.03
2022-10-31T15:00:55.142Z,50.13
2022-10-31T15:03:29.909Z,51.40
2022-10-31T15:06:01.080Z,52.70
2022-10-31T15:08:48.158Z,55.45
2022-10-31T15:11:28.717Z,56.75
2022-10-31T15:13:58.434Z,63.45
2022-10-31T15:19:13.234Z,58.08
2022-10-31T15:21:45.874Z,56.95
2022-10-31T15:24:20.216Z,57.33
2022-10-31T15:26:54.106Z,62.25
2022-10-31T15:29:24.653Z,65.22
2022-10-31T15:31:55.689Z,54.03
2022-10-31T15:34:35.188Z,61.85
2022-10-31T15:37:02.198Z,66.88
2022-10-31T15:39:30.083Z,65.32
2022-10-31T15:42:00.673Z,71.78
2022-10-31T15:44:31.195Z,73.57
2022-10-31T15:47:17.252Z,74.93
2022-10-31T15:49:51.173Z,70.25
2022-10-31T15:52:32.851Z,69.20
2022-10-31T15:55:04.152Z,78.70
2022-10-31T15:57:32.089Z,79.13
2022-10-31T15:59:59.631Z,73.82
2022-10-31T16:02:28.496Z,76.18
2022-10-31T16:04:58.009Z,79.82
2022-10-31T16:07:25.970Z,77.68
2022-10-31T16:09:56.854Z,72.28
2022-10-31T16:12:25.953Z,76.20
2022-10-31T16:14:55.256Z,80.13
2022-10-31T16:17:25.440Z,75.32
2022-10-31T16:19:58.146Z,80.55
2022-10-31T16:22:36.577Z,69.68
2022-10-31T16:25:09.363Z,80.35
2022-10-31T16:27:38.288Z,78.95
2022-10-31T16:30:28.794Z,72.45
2022-10-31T16:33:02.373Z,75.93
2022-10-31T16:35:39.841Z,76.55
2022-10-31T16:38:10.420Z,78.30
2022-10-31T16:40:39.784Z,67.57
2022-10-31T16:43:12.107Z,77.45
2022-10-31T16:45:48.194Z,78.85
2022-10-31T16:48:21.802Z,78.25
2022-10-31T16:50:50.699Z,83.82
2022-10-31T16:53:18.584Z,80.55
2022-10-31T16:56:00.221Z,81.40
2022-10-31T16:58:31.736Z,78.75
2022-10-31T17:00:59.622Z,83.38
2022-10-31T17:03:27.232Z,86.30
2022-10-31T17:05:56.543Z,91.57
2022-10-31T17:08:24.882Z,92.68
2022-10-31T17:10:54.741Z,88.55
2022-10-31T17:13:25.246Z,104.20
2022-10-31T17:15:55.355Z,97.43
2022-10-31T17:18:27.373Z,104.57
2022-10-31T17:21:00.229Z,101.47
2022-10-31T17:23:28.503Z,91.85
2022-10-31T17:25:56.635Z,111.40
2022-10-31T17:28:26.501Z,100.95
2022-10-31T17:30:59.358Z,113.43
2022-10-31T17:33:26.811Z,113.38
2022-10-31T17:35:54.151Z,115.60
2022-10-31T17:38:21.024Z,121.28
2022-10-31T17:43:20.116Z,130.27
2022-10-31T17:45:47.448Z,119.30
2022-10-31T17:48:14.411Z,140.32
2022-10-31T17:50:41.818Z,127.25
2022-10-31T17:53:08.732Z,132.55
2022-10-31T17:55:37.360Z,134.73
2022-10-31T17:58:05.802Z,145.50
2022-10-31T18:00:33.407Z,142.93
2022-10-31T18:03:03.695Z,127.18
2022-10-31T18:05:32.726Z,132.60
2022-10-31T18:08:03.764Z,129.75
2022-10-31T18:10:32.241Z,139.05
2022-10-31T18:12:59.469Z,127.53
2022-10-31T18:15:26.853Z,131.88
2022-10-31T18:17:53.772Z,146.40
2022-10-31T18:20:20.836Z,135.75
2022-10-31T18:22:47.698Z,126.03
2022-10-31T18:25:14.908Z,141.73
2022-10-31T18:27:41.888Z,134.80
2022-10-31T18:30:09.794Z,138.77
2022-10-31T18:32:36.831Z,128.10
2022-10-31T18:35:04.193Z,133.40
2022-10-31T18:37:31.058Z,123.88
2022-10-31T18:39:58.118Z,154.52
2022-10-31T18:42:25.012Z,138.82
2022-10-31T18:44:52.035Z,147.50
2022-10-31T18:47:19.421Z,132.45
2022-10-31T18:49:46.732Z,133.48
2022-10-31T18:52:13.614Z,129.02
2022-10-31T18:54:40.746Z,144.25
2022-10-31T18:57:07.606Z,137.20
2022-10-31T18:59:34.654Z,138.18
2022-10-31T19:02:01.603Z,130.65
2022-10-31T19:04:28.802Z,131.95
2022-10-31T19:06:56.233Z,136.40
2022-10-31T19:09:24.316Z,134.25
2022-10-31T19:11:51.249Z,136.15
2022-10-31T19:14:18.491Z,129.02
2022-10-31T19:16:45.354Z,133.95
2022-10-31T19:19:12.764Z,136.57
2022-10-31T19:21:39.673Z,144.25
2022-10-31T19:24:06.889Z,144.40
2022-10-31T19:26:35.182Z,146.65
2022-10-31T19:29:02.832Z,132.02
2022-10-31T19:31:29.796Z,143.27
2022-10-31T19:33:56.993Z,154.20
2022-10-31T19:36:24.805Z,148.60
2022-10-31T19:38:53.277Z,162.13
2022-10-31T19:41:26.203Z,169.18
2022-10-31T19:43:54.087Z,149.30
2022-10-31T19:46:40.481Z,155.38
2022-10-31T19:49:11.544Z,154.10
2022-10-31T19:51:38.800Z,141.95
2022-10-31T19:54:06.416Z,147.88
2022-10-31T19:56:33.574Z,145.48
2022-10-31T19:59:00.825Z,142.15
2022-10-31T20:01:27.763Z,127.68
2022-10-31T20:03:55.168Z,143.07
2022-10-31T20:06:29.788Z,131.63
2022-10-31T20:08:57.616Z,146.50
2022-10-31T20:11:26.779Z,148.15
2022-10-31T20:13:58.512Z,144.57
2022-10-31T20:18:53.383Z,139.50
2022-10-31T20:21:26.536Z,181.93
2022-10-31T20:24:02.024Z,144.32
2022-10-31T20:26:32.419Z,140.50
2022-10-31T20:29:00.944Z,156.82
2022-10-31T20:31:31.002Z,167.27
2022-10-31T20:33:58.049Z,156.68
2022-10-31T20:36:25.409Z,147.05
2022-10-31T20:38:53.029Z,142.07
2022-10-31T20:41:20.082Z,139.48
2022-10-31T20:43:47.806Z,133.95
2022-10-31T20:46:26.520Z,135.23
2022-10-31T20:48:54.354Z,126.78
2022-10-31T20:51:24.848Z,115.82
2022-10-31T20:53:53.575Z,139.35
2022-10-31T20:56:22.745Z,114.53
2022-10-31T20:58:50.388Z,93.65
2022-10-31T21:01:22.662Z,96.25
2022-10-31T21:03:50.609Z,105.32
2022-10-31T21:06:19.431Z,93.43
2022-10-31T21:08:47.357Z,103.90
2022-10-31T21:11:16.679Z,96.45
2022-10-31T21:13:46.315Z,98.07
2022-10-31T21:16:16.660Z,86.28
2022-10-31T21:18:45.515Z,97.57
2022-10-31T21:21:15.668Z,91.45
2022-10-31T21:23:45.655Z,80.70
2022-10-31T21:26:18.458Z,92.35
2022-10-31T21:28:45.570Z,85.47
2022-10-31T21:31:16.656Z,96.35
2022-10-31T21:33:45.441Z,85.75
2022-10-31T21:36:12.658Z,90.85
2022-10-31T21:38:40.435Z,88.50
2022-10-31T21:41:11.429Z,94.43
2022-10-31T21:43:43.791Z,95.18
2022-10-31T21:46:15.272Z,102.13
2022-10-31T21:48:43.575Z,86.70
2022-10-31T21:51:16.226Z,89.95
2022-10-31T21:54:02.151Z,103.63
2022-10-31T21:56:29.366Z,92.10
2022-10-31T21:58:56.668Z,104.32
2022-10-31T22:01:25.873Z,90.40
2022-10-31T22:03:53.117Z,93.30
2022-10-31T22:06:20.470Z,95.32
2022-10-31T22:08:48.126Z,98.25
2022-10-31T22:11:17.063Z,86.32
2022-10-31T22:13:47.227Z,87.13
2022-10-31T22:16:16.866Z,79.50
2022-10-31T22:18:44.611Z,82.75
2022-10-31T22:21:19.371Z,85.40
2022-10-31T22:23:55.116Z,75.32
2022-10-31T22:26:22.831Z,89.50
2022-10-31T22:28:59.427Z,87.53
2022-10-31T22:31:27.716Z,77.53
2022-10-31T22:33:55.963Z,72.13
2022-10-31T22:36:25.943Z,81.60
2022-10-31T22:38:53.375Z,84.35
2022-10-31T22:41:23.228Z,97.30
2022-10-31T22:43:50.350Z,83.15
2022-10-31T22:46:25.859Z,81.28
2022-10-31T22:48:59.016Z,79.53
2022-10-31T22:51:29.081Z,85.43
2022-10-31T22:53:56.828Z,73.85
2022-10-31T22:56:26.903Z,78.47
2022-10-31T22:58:54.028Z,80.65
2022-10-31T23:01:23.959Z,73.75
2022-10-31T23:03:51.348Z,71.32
2022-10-31T23:06:20.866Z,63.50
2022-10-31T23:08:49.178Z,71.05
2022-10-31T23:11:24.728Z,75.18
2022-10-31T23:14:09.510Z,72.78
2022-10-31T23:16:50.646Z,82.90
2022-10-31T23:19:29.129Z,70.47
2022-10-31T23:22:04.006Z,71.38
2022-10-31T23:24:38.259Z,66.55
2022-10-31T23:27:21.577Z,76.35
2022-10-31T23:29:51.426Z,73.22
2022-10-31T23:32:20.480Z,78.57
2022-10-31T23:34:50.518Z,64.95
2022-10-31T23:37:20.954Z,70.45
2022-10-31T23:39:48.760Z,63.05
2022-10-31T23:42:16.501Z,66.93
2022-10-31T23:44:43.372Z,63.38
2022-10-31T23:47:11.176Z,74.35
2022-10-31T23:49:38.154Z,68.93
2022-10-31T23:52:06.103Z,69.30
2022-10-31T23:54:33.384Z,75.57
2022-10-31T23:57:00.717Z,71.53
2022-10-31T23:59:29.448Z,66.10
